sensor_id;sensor_type;location;lat;lon;timestamp;temperature;humidity
8591;DHT22;4333;48.322;14.340;2023-08-21T00:01:22;21.70;99.90
8591;DHT22;4333;48.322;14.340;2023-08-21T00:03:48;21.80;99.90
8591;DHT22;4333;48.322;14.340;2023-08-21T00:06:15;21.70;99.90
8591;DHT22;4333;48.322;14.340;2023-08-21T00:08:41;21.80;99.90
8591;DHT22;4333;48.322;14.340;2023-08-21T00:11:12;21.70;99.90
8591;DHT22;4333;48.322;14.340;2023-08-21T00:13:38;21.40;99.90
8591;DHT22;4333;48.322;14.340;2023-08-21T00:16:03;21.20;99.90
8591;DHT22;4333;48.322;14.340;2023-08-21T00:18:29;21.10;99.90
8591;DHT22;4333;48.322;14.340;2023-08-21T00:20:57;21.10;99.90
8591;DHT22;4333;48.322;14.340;2023-08-21T00:23:23;21.20;99.90
8591;DHT22;4333;48.322;14.340;2023-08-21T00:25:49;21.40;99.90
8591;DHT22;4333;48.322;14.340;2023-08-21T00:28:14;21.50;99.90
8591;DHT22;4333;48.322;14.340;2023-08-21T00:30:42;21.50;99.90
8591;DHT22;4333;48.322;14.340;2023-08-21T00:33:08;21.40;99.90
8591;DHT22;4333;48.322;14.340;2023-08-21T00:35:34;21.30;99.90
8591;DHT22;4333;48.322;14.340;2023-08-21T00:38:02;21.20;99.90
8591;DHT22;4333;48.322;14.340;2023-08-21T00:40:28;21.00;99.90
8591;DHT22;4333;48.322;14.340;2023-08-21T00:42:56;21.00;99.90
8591;DHT22;4333;48.322;14.340;2023-08-21T00:45:21;21.10;99.90
8591;DHT22;4333;48.322;14.340;2023-08-21T00:47:50;21.10;99.90
8591;DHT22;4333;48.322;14.340;2023-08-21T00:50:16;21.20;99.90
8591;DHT22;4333;48.322;14.340;2023-08-21T00:52:46;21.20;99.90
8591;DHT22;4333;48.322;14.340;2023-08-21T00:55:13;21.30;99.90
8591;DHT22;4333;48.322;14.340;2023-08-21T00:57:39;21.30;99.90
8591;DHT22;4333;48.322;14.340;2023-08-21T01:00:09;21.20;99.90
8591;DHT22;4333;48.322;14.340;2023-08-21T01:02:42;21.00;99.90
8591;DHT22;4333;48.322;14.340;2023-08-21T01:05:08;21.10;99.90
8591;DHT22;4333;48.322;14.340;2023-08-21T01:07:42;21.10;99.90
8591;DHT22;4333;48.322;14.340;2023-08-21T01:10:26;21.20;99.90
8591;DHT22;4333;48.322;14.340;2023-08-21T01:13:19;21.30;99.90
8591;DHT22;4333;48.322;14.340;2023-08-21T01:15:46;21.30;99.90
8591;DHT22;4333;48.322;14.340;2023-08-21T01:18:13;21.10;99.90
8591;DHT22;4333;48.322;14.340;2023-08-21T01:20:41;20.70;99.90
8591;DHT22;4333;48.322;14.340;2023-08-21T01:23:09;20.40;99.90
8591;DHT22;4333;48.322;14.340;2023-08-21T01:25:35;20.50;99.90
8591;DHT22;4333;48.322;14.340;2023-08-21T01:28:01;20.60;99.90
8591;DHT22;4333;48.322;14.340;2023-08-21T01:30:29;20.60;99.90
8591;DHT22;4333;48.322;14.340;2023-08-21T01:33:01;20.70;99.90
8591;DHT22;4333;48.322;14.340;2023-08-21T01:35:31;20.80;99.90
8591;DHT22;4333;48.322;14.340;2023-08-21T01:37:59;21.00;99.90
8591;DHT22;4333;48.322;14.340;2023-08-21T01:40:25;20.90;99.90
8591;DHT22;4333;48.322;14.340;2023-08-21T01:42:53;20.80;99.90
8591;DHT22;4333;48.322;14.340;2023-08-21T01:45:19;20.60;99.90
8591;DHT22;4333;48.322;14.340;2023-08-21T01:47:45;20.70;99.90
8591;DHT22;4333;48.322;14.340;2023-08-21T01:50:11;20.80;99.90
8591;DHT22;4333;48.322;14.340;2023-08-21T01:52:37;20.80;99.90
8591;DHT22;4333;48.322;14.340;2023-08-21T01:55:03;20.80;99.90
8591;DHT22;4333;48.322;14.340;2023-08-21T01:57:31;20.80;99.90
8591;DHT22;4333;48.322;14.340;2023-08-21T02:00:02;20.90;99.90
8591;DHT22;4333;48.322;14.340;2023-08-21T02:02:31;21.00;99.90
8591;DHT22;4333;48.322;14.340;2023-08-21T02:04:56;20.90;99.90
8591;DHT22;4333;48.322;14.340;2023-08-21T02:07:22;20.70;99.90
8591;DHT22;4333;48.322;14.340;2023-08-21T02:09:48;20.50;99.90
8591;DHT22;4333;48.322;14.340;2023-08-21T02:17:26;20.70;99.90
8591;DHT22;4333;48.322;14.340;2023-08-21T02:20:01;20.80;99.90
8591;DHT22;4333;48.322;14.340;2023-08-21T02:22:29;20.80;99.90
8591;DHT22;4333;48.322;14.340;2023-08-21T02:25:00;20.80;99.90
8591;DHT22;4333;48.322;14.340;2023-08-21T02:27:37;20.70;99.90
8591;DHT22;4333;48.322;14.340;2023-08-21T02:30:14;20.60;99.90
8591;DHT22;4333;48.322;14.340;2023-08-21T02:33:08;20.40;99.90
8591;DHT22;4333;48.322;14.340;2023-08-21T02:35:46;20.50;99.90
8591;DHT22;4333;48.322;14.340;2023-08-21T02:38:22;20.70;99.90
8591;DHT22;4333;48.322;14.340;2023-08-21T02:40:50;20.70;99.90
8591;DHT22;4333;48.322;14.340;2023-08-21T02:43:19;20.80;99.90
8591;DHT22;4333;48.322;14.340;2023-08-21T02:45:48;20.60;99.90
8591;DHT22;4333;48.322;14.340;2023-08-21T02:48:22;20.40;99.90
8591;DHT22;4333;48.322;14.340;2023-08-21T02:50:48;20.20;99.90
8591;DHT22;4333;48.322;14.340;2023-08-21T02:53:20;20.10;99.90
8591;DHT22;4333;48.322;14.340;2023-08-21T02:55:57;20.20;99.90
8591;DHT22;4333;48.322;14.340;2023-08-21T02:58:23;20.40;99.90
8591;DHT22;4333;48.322;14.340;2023-08-21T03:00:56;20.50;99.90
8591;DHT22;4333;48.322;14.340;2023-08-21T03:03:28;20.60;99.90
8591;DHT22;4333;48.322;14.340;2023-08-21T03:06:01;20.60;99.90
8591;DHT22;4333;48.322;14.340;2023-08-21T03:08:33;20.60;99.90
8591;DHT22;4333;48.322;14.340;2023-08-21T03:10:59;20.30;99.90
8591;DHT22;4333;48.322;14.340;2023-08-21T03:13:28;19.90;99.90
8591;DHT22;4333;48.322;14.340;2023-08-21T03:15:58;19.70;99.90
8591;DHT22;4333;48.322;14.340;2023-08-21T03:18:53;19.70;99.90
8591;DHT22;4333;48.322;14.340;2023-08-21T03:21:30;19.80;99.90
8591;DHT22;4333;48.322;14.340;2023-08-21T03:24:03;20.00;99.90
8591;DHT22;4333;48.322;14.340;2023-08-21T03:26:29;20.20;99.90
8591;DHT22;4333;48.322;14.340;2023-08-21T03:28:55;20.40;99.90
8591;DHT22;4333;48.322;14.340;2023-08-21T03:31:20;20.50;99.90
8591;DHT22;4333;48.322;14.340;2023-08-21T03:33:48;20.40;99.90
8591;DHT22;4333;48.322;14.340;2023-08-21T03:36:14;20.20;99.90
8591;DHT22;4333;48.322;14.340;2023-08-21T03:38:40;20.00;99.90
8591;DHT22;4333;48.322;14.340;2023-08-21T03:41:08;19.90;99.90
8591;DHT22;4333;48.322;14.340;2023-08-21T03:43:36;19.60;99.90
8591;DHT22;4333;48.322;14.340;2023-08-21T03:46:04;19.60;99.90
8591;DHT22;4333;48.322;14.340;2023-08-21T03:48:32;19.40;99.90
8591;DHT22;4333;48.322;14.340;2023-08-21T03:51:02;19.40;99.90
8591;DHT22;4333;48.322;14.340;2023-08-21T03:53:31;19.30;99.90
8591;DHT22;4333;48.322;14.340;2023-08-21T03:55:56;19.20;99.90
8591;DHT22;4333;48.322;14.340;2023-08-21T03:58:22;19.00;99.90
8591;DHT22;4333;48.322;14.340;2023-08-21T04:00:50;18.90;99.90
8591;DHT22;4333;48.322;14.340;2023-08-21T04:03:15;18.90;99.90
8591;DHT22;4333;48.322;14.340;2023-08-21T04:05:41;19.00;99.90
8591;DHT22;4333;48.322;14.340;2023-08-21T04:08:07;19.00;99.90
8591;DHT22;4333;48.322;14.340;2023-08-21T04:10:33;19.00;99.90
8591;DHT22;4333;48.322;14.340;2023-08-21T04:12:58;18.90;99.90
8591;DHT22;4333;48.322;14.340;2023-08-21T04:15:26;18.80;99.90
8591;DHT22;4333;48.322;14.340;2023-08-21T04:17:52;18.80;99.90
8591;DHT22;4333;48.322;14.340;2023-08-21T04:20:20;18.80;99.90
8591;DHT22;4333;48.322;14.340;2023-08-21T04:22:49;18.90;99.90
8591;DHT22;4333;48.322;14.340;2023-08-21T04:25:15;18.90;99.90
8591;DHT22;4333;48.322;14.340;2023-08-21T04:27:48;19.00;99.90
8591;DHT22;4333;48.322;14.340;2023-08-21T04:30:14;18.90;99.90
8591;DHT22;4333;48.322;14.340;2023-08-21T04:32:40;19.00;99.90
8591;DHT22;4333;48.322;14.340;2023-08-21T04:35:06;19.00;99.90
8591;DHT22;4333;48.322;14.340;2023-08-21T04:37:34;19.00;99.90
8591;DHT22;4333;48.322;14.340;2023-08-21T04:40:02;19.00;99.90
8591;DHT22;4333;48.322;14.340;2023-08-21T04:42:28;19.10;99.90
8591;DHT22;4333;48.322;14.340;2023-08-21T04:44:53;19.10;99.90
8591;DHT22;4333;48.322;14.340;2023-08-21T04:47:24;19.10;99.90
8591;DHT22;4333;48.322;14.340;2023-08-21T04:49:52;19.10;99.90
8591;DHT22;4333;48.322;14.340;2023-08-21T04:52:18;19.20;99.90
8591;DHT22;4333;48.322;14.340;2023-08-21T04:54:46;19.30;99.90
8591;DHT22;4333;48.322;14.340;2023-08-21T04:57:12;19.30;99.90
8591;DHT22;4333;48.322;14.340;2023-08-21T04:59:38;19.30;99.90
8591;DHT22;4333;48.322;14.340;2023-08-21T05:02:04;19.40;99.90
8591;DHT22;4333;48.322;14.340;2023-08-21T05:04:29;19.40;99.90
8591;DHT22;4333;48.322;14.340;2023-08-21T05:06:57;19.50;99.90
8591;DHT22;4333;48.322;14.340;2023-08-21T05:09:23;19.50;99.90
8591;DHT22;4333;48.322;14.340;2023-08-21T05:11:48;19.50;99.90
8591;DHT22;4333;48.322;14.340;2023-08-21T05:14:14;19.40;99.90
8591;DHT22;4333;48.322;14.340;2023-08-21T05:16:42;19.30;99.90
8591;DHT22;4333;48.322;14.340;2023-08-21T05:19:08;19.30;99.90
8591;DHT22;4333;48.322;14.340;2023-08-21T05:21:34;19.40;99.90
8591;DHT22;4333;48.322;14.340;2023-08-21T05:24:01;19.60;99.90
8591;DHT22;4333;48.322;14.340;2023-08-21T05:26:27;19.60;99.90
8591;DHT22;4333;48.322;14.340;2023-08-21T05:28:53;19.70;99.90
8591;DHT22;4333;48.322;14.340;2023-08-21T05:31:18;19.80;99.90
8591;DHT22;4333;48.322;14.340;2023-08-21T05:33:44;19.70;99.90
8591;DHT22;4333;48.322;14.340;2023-08-21T05:36:10;19.70;99.90
8591;DHT22;4333;48.322;14.340;2023-08-21T05:38:36;19.70;99.90
8591;DHT22;4333;48.322;14.340;2023-08-21T05:41:04;19.70;99.90
8591;DHT22;4333;48.322;14.340;2023-08-21T05:43:30;19.90;99.90
8591;DHT22;4333;48.322;14.340;2023-08-21T05:45:58;19.90;99.90
8591;DHT22;4333;48.322;14.340;2023-08-21T05:48:24;20.20;99.90
8591;DHT22;4333;48.322;14.340;2023-08-21T05:50:53;21.00;99.90
8591;DHT22;4333;48.322;14.340;2023-08-21T05:53:19;22.40;99.90
8591;DHT22;4333;48.322;14.340;2023-08-21T05:55:47;24.40;99.90
8591;DHT22;4333;48.322;14.340;2023-08-21T05:58:13;26.20;99.90
8591;DHT22;4333;48.322;14.340;2023-08-21T06:00:39;28.10;99.90
8591;DHT22;4333;48.322;14.340;2023-08-21T06:03:04;28.80;82.10
8591;DHT22;4333;48.322;14.340;2023-08-21T06:05:30;28.80;70.80
8591;DHT22;4333;48.322;14.340;2023-08-21T06:07:56;29.00;67.10
8591;DHT22;4333;48.322;14.340;2023-08-21T06:10:27;30.10;59.70
8591;DHT22;4333;48.322;14.340;2023-08-21T06:12:54;31.80;44.20
8591;DHT22;4333;48.322;14.340;2023-08-21T06:15:20;33.40;27.80
8591;DHT22;4333;48.322;14.340;2023-08-21T06:17:48;34.30;14.90
8591;DHT22;4333;48.322;14.340;2023-08-21T06:20:14;35.30;3.30
8591;DHT22;4333;48.322;14.340;2023-08-21T06:22:42;35.30;1.00
8591;DHT22;4333;48.322;14.340;2023-08-21T06:25:08;36.10;1.00
8591;DHT22;4333;48.322;14.340;2023-08-21T06:27:36;37.00;1.00
8591;DHT22;4333;48.322;14.340;2023-08-21T06:30:04;37.30;1.00
8591;DHT22;4333;48.322;14.340;2023-08-21T06:32:34;37.30;1.00
8591;DHT22;4333;48.322;14.340;2023-08-21T06:35:00;37.00;1.00
8591;DHT22;4333;48.322;14.340;2023-08-21T06:37:27;36.90;1.00
8591;DHT22;4333;48.322;14.340;2023-08-21T06:39:53;36.50;1.00
8591;DHT22;4333;48.322;14.340;2023-08-21T06:42:21;37.10;1.00
8591;DHT22;4333;48.322;14.340;2023-08-21T06:44:47;37.60;1.00
8591;DHT22;4333;48.322;14.340;2023-08-21T06:47:12;38.20;1.00
8591;DHT22;4333;48.322;14.340;2023-08-21T06:49:40;38.60;1.00
8591;DHT22;4333;48.322;14.340;2023-08-21T06:52:08;38.90;1.00
8591;DHT22;4333;48.322;14.340;2023-08-21T06:54:34;38.70;1.00
8591;DHT22;4333;48.322;14.340;2023-08-21T06:57:02;38.60;1.00
8591;DHT22;4333;48.322;14.340;2023-08-21T06:59:30;38.90;1.00
8591;DHT22;4333;48.322;14.340;2023-08-21T07:01:57;39.10;1.00
8591;DHT22;4333;48.322;14.340;2023-08-21T07:04:23;38.80;1.00
8591;DHT22;4333;48.322;14.340;2023-08-21T07:06:51;38.20;1.00
8591;DHT22;4333;48.322;14.340;2023-08-21T07:09:16;38.40;1.00
8591;DHT22;4333;48.322;14.340;2023-08-21T07:11:42;37.50;1.00
8591;DHT22;4333;48.322;14.340;2023-08-21T07:14:10;38.20;1.00
8591;DHT22;4333;48.322;14.340;2023-08-21T07:16:37;38.50;1.00
8591;DHT22;4333;48.322;14.340;2023-08-21T07:19:06;37.60;1.00
8591;DHT22;4333;48.322;14.340;2023-08-21T07:21:31;37.70;1.00
8591;DHT22;4333;48.322;14.340;2023-08-21T07:24:00;38.10;1.00
8591;DHT22;4333;48.322;14.340;2023-08-21T07:26:28;38.40;1.00
8591;DHT22;4333;48.322;14.340;2023-08-21T07:28:54;37.70;1.00
8591;DHT22;4333;48.322;14.340;2023-08-21T07:31:19;37.40;1.00
8591;DHT22;4333;48.322;14.340;2023-08-21T07:33:45;36.80;1.00
8591;DHT22;4333;48.322;14.340;2023-08-21T07:36:13;37.20;1.00
8591;DHT22;4333;48.322;14.340;2023-08-21T07:38:43;37.60;1.00
8591;DHT22;4333;48.322;14.340;2023-08-21T07:41:12;38.10;1.00
8591;DHT22;4333;48.322;14.340;2023-08-21T07:43:40;37.60;1.00
8591;DHT22;4333;48.322;14.340;2023-08-21T07:46:09;36.20;1.00
8591;DHT22;4333;48.322;14.340;2023-08-21T07:48:41;35.00;1.00
8591;DHT22;4333;48.322;14.340;2023-08-21T07:51:10;33.20;1.00
8591;DHT22;4333;48.322;14.340;2023-08-21T07:53:35;31.60;1.00
8591;DHT22;4333;48.322;14.340;2023-08-21T07:56:02;31.50;1.00
8591;DHT22;4333;48.322;14.340;2023-08-21T07:58:29;32.20;1.00
8591;DHT22;4333;48.322;14.340;2023-08-21T08:00:56;32.40;1.00
8591;DHT22;4333;48.322;14.340;2023-08-21T08:03:26;31.70;1.00
8591;DHT22;4333;48.322;14.340;2023-08-21T08:06:01;31.60;1.00
8591;DHT22;4333;48.322;14.340;2023-08-21T08:08:29;31.20;1.30
8591;DHT22;4333;48.322;14.340;2023-08-21T08:11:04;30.90;4.30
8591;DHT22;4333;48.322;14.340;2023-08-21T08:13:31;30.90;7.00
8591;DHT22;4333;48.322;14.340;2023-08-21T08:15:56;30.60;10.60
8591;DHT22;4333;48.322;14.340;2023-08-21T08:18:24;30.20;12.60
8591;DHT22;4333;48.322;14.340;2023-08-21T08:20:50;29.90;21.20
8591;DHT22;4333;48.322;14.340;2023-08-21T08:23:16;29.80;24.90
8591;DHT22;4333;48.322;14.340;2023-08-21T08:25:41;29.80;26.30
8591;DHT22;4333;48.322;14.340;2023-08-21T08:28:07;29.80;24.70
8591;DHT22;4333;48.322;14.340;2023-08-21T08:30:34;29.80;26.20
8591;DHT22;4333;48.322;14.340;2023-08-21T08:33:00;30.00;28.70
8591;DHT22;4333;48.322;14.340;2023-08-21T08:35:26;30.50;28.80
8591;DHT22;4333;48.322;14.340;2023-08-21T08:37:51;30.50;29.00
8591;DHT22;4333;48.322;14.340;2023-08-21T08:40:17;30.80;25.80
8591;DHT22;4333;48.322;14.340;2023-08-21T08:42:43;30.90;26.50
8591;DHT22;4333;48.322;14.340;2023-08-21T08:45:15;31.70;25.40
8591;DHT22;4333;48.322;14.340;2023-08-21T08:47:45;32.20;17.00
8591;DHT22;4333;48.322;14.340;2023-08-21T08:50:12;32.00;14.90
8591;DHT22;4333;48.322;14.340;2023-08-21T08:52:41;31.90;12.30
8591;DHT22;4333;48.322;14.340;2023-08-21T08:55:08;31.80;8.60
8591;DHT22;4333;48.322;14.340;2023-08-21T08:57:34;31.90;9.90
8591;DHT22;4333;48.322;14.340;2023-08-21T09:00:01;32.10;9.80
8591;DHT22;4333;48.322;14.340;2023-08-21T09:02:27;32.10;9.40
8591;DHT22;4333;48.322;14.340;2023-08-21T09:04:53;31.70;9.90
8591;DHT22;4333;48.322;14.340;2023-08-21T09:07:21;31.90;12.40
8591;DHT22;4333;48.322;14.340;2023-08-21T09:09:49;32.10;9.30
8591;DHT22;4333;48.322;14.340;2023-08-21T09:12:19;32.50;8.30
8591;DHT22;4333;48.322;14.340;2023-08-21T09:14:47;31.50;10.20
8591;DHT22;4333;48.322;14.340;2023-08-21T09:17:13;31.90;13.40
8591;DHT22;4333;48.322;14.340;2023-08-21T09:19:39;32.20;10.30
8591;DHT22;4333;48.322;14.340;2023-08-21T09:22:17;32.00;10.20
8591;DHT22;4333;48.322;14.340;2023-08-21T09:27:33;33.10;5.60
8591;DHT22;4333;48.322;14.340;2023-08-21T09:30:06;33.50;1.00
8591;DHT22;4333;48.322;14.340;2023-08-21T09:32:59;33.30;1.90
8591;DHT22;4333;48.322;14.340;2023-08-21T09:35:32;33.80;1.00
8591;DHT22;4333;48.322;14.340;2023-08-21T09:37:58;33.70;1.00
8591;DHT22;4333;48.322;14.340;2023-08-21T09:40:24;33.40;1.00
8591;DHT22;4333;48.322;14.340;2023-08-21T09:43:03;33.00;1.00
8591;DHT22;4333;48.322;14.340;2023-08-21T09:45:30;32.30;1.10
8591;DHT22;4333;48.322;14.340;2023-08-21T09:47:58;32.20;3.70
8591;DHT22;4333;48.322;14.340;2023-08-21T09:50:26;32.00;3.10
8591;DHT22;4333;48.322;14.340;2023-08-21T09:52:54;32.60;2.30
8591;DHT22;4333;48.322;14.340;2023-08-21T09:55:20;32.50;1.00
8591;DHT22;4333;48.322;14.340;2023-08-21T09:57:48;32.40;1.00
8591;DHT22;4333;48.322;14.340;2023-08-21T10:00:16;32.20;1.00
8591;DHT22;4333;48.322;14.340;2023-08-21T10:02:50;32.60;2.20
8591;DHT22;4333;48.322;14.340;2023-08-21T10:05:19;33.00;1.00
8591;DHT22;4333;48.322;14.340;2023-08-21T10:07:49;32.70;1.00
8591;DHT22;4333;48.322;14.340;2023-08-21T10:10:16;32.80;1.00
8591;DHT22;4333;48.322;14.340;2023-08-21T10:12:42;33.40;1.00
8591;DHT22;4333;48.322;14.340;2023-08-21T10:15:11;32.90;1.00
8591;DHT22;4333;48.322;14.340;2023-08-21T10:17:37;32.90;1.00
8591;DHT22;4333;48.322;14.340;2023-08-21T10:20:07;33.20;1.00
8591;DHT22;4333;48.322;14.340;2023-08-21T10:22:44;33.60;1.00
8591;DHT22;4333;48.322;14.340;2023-08-21T10:27:55;34.30;1.00
8591;DHT22;4333;48.322;14.340;2023-08-21T10:30:22;34.10;1.00
8591;DHT22;4333;48.322;14.340;2023-08-21T10:32:50;34.60;1.00
8591;DHT22;4333;48.322;14.340;2023-08-21T10:35:21;34.60;1.00
8591;DHT22;4333;48.322;14.340;2023-08-21T10:38:09;34.20;1.00
8591;DHT22;4333;48.322;14.340;2023-08-21T10:40:39;35.00;1.00
8591;DHT22;4333;48.322;14.340;2023-08-21T10:43:42;35.80;1.00
8591;DHT22;4333;48.322;14.340;2023-08-21T10:46:12;36.60;1.00
8591;DHT22;4333;48.322;14.340;2023-08-21T10:48:38;37.00;1.00
8591;DHT22;4333;48.322;14.340;2023-08-21T10:51:06;37.30;1.00
8591;DHT22;4333;48.322;14.340;2023-08-21T10:53:33;37.40;1.00
8591;DHT22;4333;48.322;14.340;2023-08-21T10:56:05;37.60;1.00
8591;DHT22;4333;48.322;14.340;2023-08-21T10:58:37;36.90;1.00
8591;DHT22;4333;48.322;14.340;2023-08-21T11:01:03;36.80;1.00
8591;DHT22;4333;48.322;14.340;2023-08-21T11:03:31;36.60;1.00
8591;DHT22;4333;48.322;14.340;2023-08-21T11:06:04;36.70;1.00
8591;DHT22;4333;48.322;14.340;2023-08-21T11:08:31;37.00;1.00
8591;DHT22;4333;48.322;14.340;2023-08-21T11:10:57;37.10;1.00
8591;DHT22;4333;48.322;14.340;2023-08-21T11:13:24;36.00;1.00
8591;DHT22;4333;48.322;14.340;2023-08-21T11:16:00;35.10;1.00
8591;DHT22;4333;48.322;14.340;2023-08-21T11:18:36;34.50;1.00
8591;DHT22;4333;48.322;14.340;2023-08-21T11:21:10;34.10;1.00
8591;DHT22;4333;48.322;14.340;2023-08-21T11:23:40;33.60;1.00
8591;DHT22;4333;48.322;14.340;2023-08-21T11:26:09;34.10;1.00
8591;DHT22;4333;48.322;14.340;2023-08-21T11:28:35;33.80;1.00
8591;DHT22;4333;48.322;14.340;2023-08-21T11:31:04;34.10;1.00
8591;DHT22;4333;48.322;14.340;2023-08-21T11:33:33;34.20;1.00
8591;DHT22;4333;48.322;14.340;2023-08-21T11:36:05;33.60;1.00
8591;DHT22;4333;48.322;14.340;2023-08-21T11:38:30;33.60;1.00
8591;DHT22;4333;48.322;14.340;2023-08-21T11:41:00;33.60;1.00
8591;DHT22;4333;48.322;14.340;2023-08-21T11:43:46;33.60;1.00
8591;DHT22;4333;48.322;14.340;2023-08-21T11:46:14;33.90;1.00
8591;DHT22;4333;48.322;14.340;2023-08-21T11:48:40;34.50;1.00
8591;DHT22;4333;48.322;14.340;2023-08-21T11:51:07;34.30;1.00
8591;DHT22;4333;48.322;14.340;2023-08-21T11:53:38;34.80;1.00
8591;DHT22;4333;48.322;14.340;2023-08-21T11:56:12;35.60;1.00
8591;DHT22;4333;48.322;14.340;2023-08-21T11:58:41;35.70;1.00
8591;DHT22;4333;48.322;14.340;2023-08-21T12:01:13;35.00;1.00
8591;DHT22;4333;48.322;14.340;2023-08-21T12:03:41;34.70;1.00
8591;DHT22;4333;48.322;14.340;2023-08-21T12:06:07;34.30;1.00
8591;DHT22;4333;48.322;14.340;2023-08-21T12:08:34;35.30;1.00
8591;DHT22;4333;48.322;14.340;2023-08-21T12:10:59;35.60;1.00
8591;DHT22;4333;48.322;14.340;2023-08-21T12:13:25;35.60;1.00
8591;DHT22;4333;48.322;14.340;2023-08-21T12:15:53;35.80;1.00
8591;DHT22;4333;48.322;14.340;2023-08-21T12:18:20;36.30;1.00
8591;DHT22;4333;48.322;14.340;2023-08-21T12:20:46;35.80;1.00
8591;DHT22;4333;48.322;14.340;2023-08-21T12:23:12;35.70;1.00
8591;DHT22;4333;48.322;14.340;2023-08-21T12:25:37;35.90;1.00
8591;DHT22;4333;48.322;14.340;2023-08-21T12:28:04;36.10;1.00
8591;DHT22;4333;48.322;14.340;2023-08-21T12:30:30;36.00;1.00
8591;DHT22;4333;48.322;14.340;2023-08-21T12:32:56;36.10;1.00
8591;DHT22;4333;48.322;14.340;2023-08-21T12:35:21;36.20;1.00
8591;DHT22;4333;48.322;14.340;2023-08-21T12:37:49;35.90;1.00
8591;DHT22;4333;48.322;14.340;2023-08-21T12:40:15;35.80;1.00
8591;DHT22;4333;48.322;14.340;2023-08-21T12:42:43;35.70;1.00
8591;DHT22;4333;48.322;14.340;2023-08-21T12:45:13;35.40;1.00
8591;DHT22;4333;48.322;14.340;2023-08-21T12:47:39;35.10;1.00
8591;DHT22;4333;48.322;14.340;2023-08-21T12:50:08;35.40;1.00
8591;DHT22;4333;48.322;14.340;2023-08-21T12:52:36;35.20;1.00
8591;DHT22;4333;48.322;14.340;2023-08-21T12:55:02;35.00;1.00
8591;DHT22;4333;48.322;14.340;2023-08-21T12:57:31;34.80;1.00
8591;DHT22;4333;48.322;14.340;2023-08-21T12:59:57;35.00;1.00
8591;DHT22;4333;48.322;14.340;2023-08-21T13:02:22;35.00;1.00
8591;DHT22;4333;48.322;14.340;2023-08-21T13:04:51;35.30;1.00
8591;DHT22;4333;48.322;14.340;2023-08-21T13:07:16;35.30;1.00
8591;DHT22;4333;48.322;14.340;2023-08-21T13:09:43;35.50;1.00
8591;DHT22;4333;48.322;14.340;2023-08-21T13:12:09;36.00;1.00
8591;DHT22;4333;48.322;14.340;2023-08-21T13:14:39;36.50;1.00
8591;DHT22;4333;48.322;14.340;2023-08-21T13:17:07;36.60;1.00
8591;DHT22;4333;48.322;14.340;2023-08-21T13:19:33;37.00;1.00
8591;DHT22;4333;48.322;14.340;2023-08-21T13:22:01;37.40;1.00
8591;DHT22;4333;48.322;14.340;2023-08-21T13:24:26;37.70;1.00
8591;DHT22;4333;48.322;14.340;2023-08-21T13:26:55;38.00;1.00
8591;DHT22;4333;48.322;14.340;2023-08-21T13:29:21;38.40;1.00
8591;DHT22;4333;48.322;14.340;2023-08-21T13:31:47;38.60;1.00
8591;DHT22;4333;48.322;14.340;2023-08-21T13:34:17;38.70;1.00
8591;DHT22;4333;48.322;14.340;2023-08-21T13:36:45;38.40;1.00
8591;DHT22;4333;48.322;14.340;2023-08-21T13:39:11;37.60;1.00
8591;DHT22;4333;48.322;14.340;2023-08-21T13:41:41;37.70;1.00
8591;DHT22;4333;48.322;14.340;2023-08-21T13:44:08;38.00;1.00
8591;DHT22;4333;48.322;14.340;2023-08-21T13:46:37;38.20;1.00
8591;DHT22;4333;48.322;14.340;2023-08-21T13:49:02;38.50;1.00
8591;DHT22;4333;48.322;14.340;2023-08-21T13:51:28;38.50;1.00
8591;DHT22;4333;48.322;14.340;2023-08-21T13:53:54;38.40;1.00
8591;DHT22;4333;48.322;14.340;2023-08-21T13:56:20;38.40;1.00
8591;DHT22;4333;48.322;14.340;2023-08-21T13:58:45;38.40;1.00
8591;DHT22;4333;48.322;14.340;2023-08-21T14:01:13;38.20;1.00
8591;DHT22;4333;48.322;14.340;2023-08-21T14:03:40;38.20;1.00
8591;DHT22;4333;48.322;14.340;2023-08-21T14:06:06;38.10;1.00
8591;DHT22;4333;48.322;14.340;2023-08-21T14:08:36;38.10;1.00
8591;DHT22;4333;48.322;14.340;2023-08-21T14:11:01;38.20;1.00
8591;DHT22;4333;48.322;14.340;2023-08-21T14:13:27;38.30;1.00
8591;DHT22;4333;48.322;14.340;2023-08-21T14:15:53;38.10;1.00
8591;DHT22;4333;48.322;14.340;2023-08-21T14:18:18;37.70;1.00
8591;DHT22;4333;48.322;14.340;2023-08-21T14:20:44;37.70;1.00
8591;DHT22;4333;48.322;14.340;2023-08-21T14:23:10;37.90;1.00
8591;DHT22;4333;48.322;14.340;2023-08-21T14:25:35;38.00;1.00
8591;DHT22;4333;48.322;14.340;2023-08-21T14:28:03;38.20;1.00
8591;DHT22;4333;48.322;14.340;2023-08-21T14:30:29;38.30;1.00
8591;DHT22;4333;48.322;14.340;2023-08-21T14:32:55;38.30;1.00
8591;DHT22;4333;48.322;14.340;2023-08-21T14:35:20;38.30;1.00
8591;DHT22;4333;48.322;14.340;2023-08-21T14:37:46;38.20;1.00
8591;DHT22;4333;48.322;14.340;2023-08-21T14:40:14;38.30;1.00
8591;DHT22;4333;48.322;14.340;2023-08-21T14:42:40;38.40;1.00
8591;DHT22;4333;48.322;14.340;2023-08-21T14:45:06;38.40;1.00
8591;DHT22;4333;48.322;14.340;2023-08-21T14:47:32;38.20;1.00
8591;DHT22;4333;48.322;14.340;2023-08-21T14:49:58;38.00;1.00
8591;DHT22;4333;48.322;14.340;2023-08-21T14:52:25;37.90;1.00
8591;DHT22;4333;48.322;14.340;2023-08-21T14:54:52;37.90;1.00
8591;DHT22;4333;48.322;14.340;2023-08-21T14:57:18;38.00;1.00
8591;DHT22;4333;48.322;14.340;2023-08-21T14:59:46;38.00;1.00
8591;DHT22;4333;48.322;14.340;2023-08-21T15:02:12;37.80;1.00
8591;DHT22;4333;48.322;14.340;2023-08-21T15:04:39;37.20;1.00
8591;DHT22;4333;48.322;14.340;2023-08-21T15:07:05;37.40;1.00
8591;DHT22;4333;48.322;14.340;2023-08-21T15:09:33;37.60;1.00
8591;DHT22;4333;48.322;14.340;2023-08-21T15:12:03;37.70;1.00
8591;DHT22;4333;48.322;14.340;2023-08-21T15:14:32;37.80;1.00
8591;DHT22;4333;48.322;14.340;2023-08-21T15:17:02;37.90;1.00
8591;DHT22;4333;48.322;14.340;2023-08-21T15:19:27;37.70;1.00
8591;DHT22;4333;48.322;14.340;2023-08-21T15:21:55;37.60;1.00
8591;DHT22;4333;48.322;14.340;2023-08-21T15:24:21;37.50;1.00
8591;DHT22;4333;48.322;14.340;2023-08-21T15:26:47;37.60;1.00
8591;DHT22;4333;48.322;14.340;2023-08-21T15:29:18;37.50;1.00
8591;DHT22;4333;48.322;14.340;2023-08-21T15:31:46;37.40;1.00
8591;DHT22;4333;48.322;14.340;2023-08-21T15:34:16;37.30;1.00
8591;DHT22;4333;48.322;14.340;2023-08-21T15:36:42;37.30;1.00
8591;DHT22;4333;48.322;14.340;2023-08-21T15:39:10;37.10;1.00
8591;DHT22;4333;48.322;14.340;2023-08-21T15:41:35;36.90;1.00
8591;DHT22;4333;48.322;14.340;2023-08-21T15:44:01;37.00;1.00
8591;DHT22;4333;48.322;14.340;2023-08-21T15:46:27;37.00;1.00
8591;DHT22;4333;48.322;14.340;2023-08-21T15:48:53;36.90;1.00
8591;DHT22;4333;48.322;14.340;2023-08-21T15:51:19;36.80;1.00
8591;DHT22;4333;48.322;14.340;2023-08-21T15:53:46;36.80;1.00
8591;DHT22;4333;48.322;14.340;2023-08-21T15:56:15;36.80;1.00
8591;DHT22;4333;48.322;14.340;2023-08-21T15:58:40;36.80;1.00
8591;DHT22;4333;48.322;14.340;2023-08-21T16:01:08;36.60;1.00
8591;DHT22;4333;48.322;14.340;2023-08-21T16:03:33;36.50;1.00
8591;DHT22;4333;48.322;14.340;2023-08-21T16:05:59;36.60;1.00
8591;DHT22;4333;48.322;14.340;2023-08-21T16:08:27;36.70;1.00
8591;DHT22;4333;48.322;14.340;2023-08-21T16:10:53;36.70;1.00